sensor_id;sensor_type;location;lat;lon;timestamp;P1;durP1;ratioP1;P2;durP2;ratioP2
56728;SDS011;42612;52.232;7.560;2024-02-26T00:02:16;2.75;;;1.33;;
56728;SDS011;42612;52.232;7.560;2024-02-26T00:04:42;1.60;;;1.50;;
56728;SDS011;42612;52.232;7.560;2024-02-26T00:07:08;1.40;;;1.25;;
56728;SDS011;42612;52.232;7.560;2024-02-26T00:09:34;3.10;;;1.50;;
56728;SDS011;42612;52.232;7.560;2024-02-26T00:12:01;1.48;;;1.33;;
56728;SDS011;42612;52.232;7.560;2024-02-26T00:14:29;1.58;;;1.10;;
56728;SDS011;42612;52.232;7.560;2024-02-26T00:16:55;1.60;;;1.50;;
56728;SDS011;42612;52.232;7.560;2024-02-26T00:19:21;1.98;;;1.00;;
56728;SDS011;42612;52.232;7.560;2024-02-26T00:21:47;1.58;;;1.30;;
56728;SDS011;42612;52.232;7.560;2024-02-26T00:24:12;2.50;;;1.60;;
56728;SDS011;42612;52.232;7.560;2024-02-26T00:26:38;2.10;;;1.80;;
56728;SDS011;42612;52.232;7.560;2024-02-26T00:29:04;2.70;;;1.40;;
56728;SDS011;42612;52.232;7.560;2024-02-26T00:31:30;1.30;;;1.20;;
56728;SDS011;42612;52.232;7.560;2024-02-26T00:33:56;1.80;;;1.50;;
56728;SDS011;42612;52.232;7.560;2024-02-26T00:36:22;4.00;;;1.73;;
56728;SDS011;42612;52.232;7.560;2024-02-26T00:38:48;1.77;;;1.30;;
56728;SDS011;42612;52.232;7.560;2024-02-26T00:41:16;1.70;;;1.35;;
56728;SDS011;42612;52.232;7.560;2024-02-26T00:43:43;1.92;;;1.55;;
56728;SDS011;42612;52.232;7.560;2024-02-26T00:46:09;1.77;;;1.42;;
56728;SDS011;42612;52.232;7.560;2024-02-26T00:48:35;1.92;;;1.63;;
56728;SDS011;42612;52.232;7.560;2024-02-26T00:51:00;1.98;;;1.77;;
56728;SDS011;42612;52.232;7.560;2024-02-26T00:53:26;2.20;;;1.80;;
56728;SDS011;42612;52.232;7.560;2024-02-26T00:55:53;2.22;;;2.05;;
56728;SDS011;42612;52.232;7.560;2024-02-26T00:58:19;2.05;;;1.85;;
56728;SDS011;42612;52.232;7.560;2024-02-26T01:00:45;2.50;;;2.13;;
56728;SDS011;42612;52.232;7.560;2024-02-26T01:03:10;2.20;;;2.00;;
56728;SDS011;42612;52.232;7.560;2024-02-26T01:05:36;3.85;;;1.92;;
56728;SDS011;42612;52.232;7.560;2024-02-26T01:08:03;2.40;;;1.77;;
56728;SDS011;42612;52.232;7.560;2024-02-26T01:10:29;2.63;;;2.28;;
56728;SDS011;42612;52.232;7.560;2024-02-26T01:12:55;2.47;;;2.28;;
56728;SDS011;42612;52.232;7.560;2024-02-26T01:15:21;3.70;;;2.20;;
56728;SDS011;42612;52.232;7.560;2024-02-26T01:17:49;2.10;;;1.90;;
56728;SDS011;42612;52.232;7.560;2024-02-26T01:20:16;3.40;;;2.15;;
56728;SDS011;42612;52.232;7.560;2024-02-26T01:22:42;3.60;;;2.65;;
56728;SDS011;42612;52.232;7.560;2024-02-26T01:25:09;4.30;;;2.85;;
56728;SDS011;42612;52.232;7.560;2024-02-26T01:27:35;2.30;;;2.10;;
56728;SDS011;42612;52.232;7.560;2024-02-26T01:30:05;2.63;;;2.25;;
56728;SDS011;42612;52.232;7.560;2024-02-26T01:32:31;2.60;;;2.10;;
56728;SDS011;42612;52.232;7.560;2024-02-26T01:34:57;2.38;;;2.17;;
56728;SDS011;42612;52.232;7.560;2024-02-26T01:37:23;4.47;;;1.85;;
56728;SDS011;42612;52.232;7.560;2024-02-26T01:39:49;3.88;;;2.67;;
56728;SDS011;42612;52.232;7.560;2024-02-26T01:42:14;3.75;;;2.50;;
56728;SDS011;42612;52.232;7.560;2024-02-26T01:44:40;3.63;;;2.20;;
56728;SDS011;42612;52.232;7.560;2024-02-26T01:47:07;2.58;;;2.17;;
56728;SDS011;42612;52.232;7.560;2024-02-26T01:49:36;2.22;;;2.03;;
56728;SDS011;42612;52.232;7.560;2024-02-26T01:52:04;4.35;;;2.38;;
56728;SDS011;42612;52.232;7.560;2024-02-26T01:54:32;3.80;;;1.73;;
56728;SDS011;42612;52.232;7.560;2024-02-26T01:57:00;2.30;;;1.70;;
56728;SDS011;42612;52.232;7.560;2024-02-26T01:59:27;2.25;;;2.05;;
56728;SDS011;42612;52.232;7.560;2024-02-26T02:01:54;2.30;;;1.90;;
56728;SDS011;42612;52.232;7.560;2024-02-26T02:04:23;1.75;;;1.65;;
56728;SDS011;42612;52.232;7.560;2024-02-26T02:06:49;2.15;;;1.95;;
56728;SDS011;42612;52.232;7.560;2024-02-26T02:11:43;1.98;;;1.40;;
56728;SDS011;42612;52.232;7.560;2024-02-26T02:14:09;2.70;;;2.05;;
56728;SDS011;42612;52.232;7.560;2024-02-26T02:16:35;2.40;;;2.08;;
56728;SDS011;42612;52.232;7.560;2024-02-26T02:19:01;1.95;;;1.52;;
56728;SDS011;42612;52.232;7.560;2024-02-26T02:21:26;2.30;;;2.10;;
56728;SDS011;42612;52.232;7.560;2024-02-26T02:23:52;2.50;;;1.90;;
56728;SDS011;42612;52.232;7.560;2024-02-26T02:26:18;1.98;;;1.67;;
56728;SDS011;42612;52.232;7.560;2024-02-26T02:28:45;1.95;;;1.85;;
56728;SDS011;42612;52.232;7.560;2024-02-26T02:31:13;1.65;;;1.55;;
56728;SDS011;42612;52.232;7.560;2024-02-26T02:33:39;2.47;;;1.67;;
56728;SDS011;42612;52.232;7.560;2024-02-26T02:36:05;2.67;;;1.65;;
56728;SDS011;42612;52.232;7.560;2024-02-26T02:38:34;1.58;;;1.48;;
56728;SDS011;42612;52.232;7.560;2024-02-26T02:41:03;2.20;;;1.70;;
56728;SDS011;42612;52.232;7.560;2024-02-26T02:43:30;2.30;;;1.73;;
56728;SDS011;42612;52.232;7.560;2024-02-26T02:45:55;2.42;;;1.67;;
56728;SDS011;42612;52.232;7.560;2024-02-26T02:48:21;1.88;;;1.77;;
56728;SDS011;42612;52.232;7.560;2024-02-26T02:50:47;4.18;;;1.90;;
56728;SDS011;42612;52.232;7.560;2024-02-26T02:53:12;3.15;;;2.08;;
56728;SDS011;42612;52.232;7.560;2024-02-26T02:55:38;2.28;;;1.95;;
56728;SDS011;42612;52.232;7.560;2024-02-26T02:58:04;1.80;;;1.65;;
56728;SDS011;42612;52.232;7.560;2024-02-26T03:00:30;2.28;;;1.70;;
56728;SDS011;42612;52.232;7.560;2024-02-26T03:02:56;3.35;;;2.03;;
56728;SDS011;42612;52.232;7.560;2024-02-26T03:05:21;3.55;;;1.98;;
56728;SDS011;42612;52.232;7.560;2024-02-26T03:07:47;1.70;;;1.60;;
56728;SDS011;42612;52.232;7.560;2024-02-26T03:10:13;2.10;;;1.90;;
56728;SDS011;42612;52.232;7.560;2024-02-26T03:12:39;3.08;;;1.73;;
56728;SDS011;42612;52.232;7.560;2024-02-26T03:15:04;2.05;;;1.77;;
56728;SDS011;42612;52.232;7.560;2024-02-26T03:17:31;2.72;;;1.85;;
56728;SDS011;42612;52.232;7.560;2024-02-26T03:19:56;2.15;;;1.95;;
56728;SDS011;42612;52.232;7.560;2024-02-26T03:22:22;2.65;;;1.80;;
56728;SDS011;42612;52.232;7.560;2024-02-26T03:24:48;2.22;;;1.70;;
56728;SDS011;42612;52.232;7.560;2024-02-26T03:27:13;3.17;;;1.80;;
56728;SDS011;42612;52.232;7.560;2024-02-26T03:29:40;2.00;;;1.83;;
56728;SDS011;42612;52.232;7.560;2024-02-26T03:32:05;2.85;;;1.95;;
56728;SDS011;42612;52.232;7.560;2024-02-26T03:34:32;1.70;;;1.50;;
56728;SDS011;42612;52.232;7.560;2024-02-26T03:37:01;1.65;;;1.55;;
56728;SDS011;42612;52.232;7.560;2024-02-26T03:39:27;1.80;;;1.70;;
56728;SDS011;42612;52.232;7.560;2024-02-26T03:41:52;1.98;;;1.35;;
56728;SDS011;42612;52.232;7.560;2024-02-26T03:44:19;3.38;;;1.70;;
56728;SDS011;42612;52.232;7.560;2024-02-26T03:46:45;2.25;;;1.88;;
56728;SDS011;42612;52.232;7.560;2024-02-26T03:49:10;1.92;;;1.60;;
56728;SDS011;42612;52.232;7.560;2024-02-26T03:51:36;2.83;;;1.42;;
56728;SDS011;42612;52.232;7.560;2024-02-26T03:54:02;1.73;;;1.63;;
56728;SDS011;42612;52.232;7.560;2024-02-26T03:56:28;1.58;;;1.48;;
56728;SDS011;42612;52.232;7.560;2024-02-26T03:58:55;1.58;;;1.48;;
56728;SDS011;42612;52.232;7.560;2024-02-26T04:01:20;1.80;;;1.70;;
56728;SDS011;42612;52.232;7.560;2024-02-26T04:03:46;2.00;;;1.35;;
56728;SDS011;42612;52.232;7.560;2024-02-26T04:06:12;2.10;;;1.40;;
56728;SDS011;42612;52.232;7.560;2024-02-26T04:08:43;2.53;;;1.40;;
56728;SDS011;42612;52.232;7.560;2024-02-26T04:11:08;2.20;;;1.55;;
56728;SDS011;42612;52.232;7.560;2024-02-26T04:13:34;1.77;;;1.33;;
56728;SDS011;42612;52.232;7.560;2024-02-26T04:16:00;2.03;;;1.40;;
56728;SDS011;42612;52.232;7.560;2024-02-26T04:18:27;1.65;;;1.40;;
56728;SDS011;42612;52.232;7.560;2024-02-26T04:20:53;1.10;;;1.00;;
56728;SDS011;42612;52.232;7.560;2024-02-26T04:23:19;1.52;;;1.20;;
56728;SDS011;42612;52.232;7.560;2024-02-26T04:25:45;1.63;;;1.52;;
56728;SDS011;42612;52.232;7.560;2024-02-26T04:28:11;2.78;;;1.20;;
56728;SDS011;42612;52.232;7.560;2024-02-26T04:30:37;2.28;;;1.30;;
56728;SDS011;42612;52.232;7.560;2024-02-26T04:33:03;1.55;;;1.38;;
56728;SDS011;42612;52.232;7.560;2024-02-26T04:35:29;1.60;;;1.40;;
56728;SDS011;42612;52.232;7.560;2024-02-26T04:37:55;2.05;;;1.40;;
56728;SDS011;42612;52.232;7.560;2024-02-26T04:40:20;1.20;;;1.10;;
56728;SDS011;42612;52.232;7.560;2024-02-26T04:42:46;3.65;;;1.35;;
56728;SDS011;42612;52.232;7.560;2024-02-26T04:45:12;1.35;;;1.25;;
56728;SDS011;42612;52.232;7.560;2024-02-26T04:47:38;2.05;;;1.45;;
56728;SDS011;42612;52.232;7.560;2024-02-26T04:50:04;2.58;;;1.48;;
56728;SDS011;42612;52.232;7.560;2024-02-26T04:52:30;1.95;;;1.40;;
56728;SDS011;42612;52.232;7.560;2024-02-26T04:54:56;1.88;;;1.45;;
56728;SDS011;42612;52.232;7.560;2024-02-26T04:57:22;1.30;;;1.20;;
56728;SDS011;42612;52.232;7.560;2024-02-26T04:59:47;1.60;;;1.50;;
56728;SDS011;42612;52.232;7.560;2024-02-26T05:02:13;1.52;;;1.40;;
56728;SDS011;42612;52.232;7.560;2024-02-26T05:04:39;1.85;;;1.52;;
56728;SDS011;42612;52.232;7.560;2024-02-26T05:07:05;1.73;;;1.63;;
56728;SDS011;42612;52.232;7.560;2024-02-26T05:09:31;2.08;;;1.40;;
56728;SDS011;42612;52.232;7.560;2024-02-26T05:11:57;1.50;;;1.40;;
56728;SDS011;42612;52.232;7.560;2024-02-26T05:14:23;1.67;;;1.58;;
56728;SDS011;42612;52.232;7.560;2024-02-26T05:16:49;1.55;;;1.45;;
56728;SDS011;42612;52.232;7.560;2024-02-26T05:19:14;1.95;;;1.75;;
56728;SDS011;42612;52.232;7.560;2024-02-26T05:21:40;1.85;;;1.75;;
56728;SDS011;42612;52.232;7.560;2024-02-26T05:24:07;1.60;;;1.50;;
56728;SDS011;42612;52.232;7.560;2024-02-26T05:26:33;1.45;;;1.35;;
56728;SDS011;42612;52.232;7.560;2024-02-26T05:28:59;2.42;;;2.10;;
56728;SDS011;42612;52.232;7.560;2024-02-26T05:31:25;1.63;;;1.52;;
56728;SDS011;42612;52.232;7.560;2024-02-26T05:33:52;1.40;;;1.30;;
56728;SDS011;42612;52.232;7.560;2024-02-26T05:36:19;4.70;;;2.78;;
56728;SDS011;42612;52.232;7.560;2024-02-26T05:38:48;2.60;;;2.03;;
56728;SDS011;42612;52.232;7.560;2024-02-26T05:41:15;2.75;;;2.08;;
56728;SDS011;42612;52.232;7.560;2024-02-26T05:43:45;2.78;;;1.90;;
56728;SDS011;42612;52.232;7.560;2024-02-26T05:46:10;6.18;;;3.92;;
56728;SDS011;42612;52.232;7.560;2024-02-26T05:48:36;3.58;;;2.88;;
56728;SDS011;42612;52.232;7.560;2024-02-26T05:51:02;2.70;;;2.25;;
56728;SDS011;42612;52.232;7.560;2024-02-26T05:53:29;3.67;;;2.13;;
56728;SDS011;42612;52.232;7.560;2024-02-26T05:55:54;3.00;;;2.22;;
56728;SDS011;42612;52.232;7.560;2024-02-26T05:58:20;4.13;;;2.45;;
56728;SDS011;42612;52.232;7.560;2024-02-26T06:00:46;2.20;;;2.00;;
56728;SDS011;42612;52.232;7.560;2024-02-26T06:03:12;3.75;;;2.65;;
56728;SDS011;42612;52.232;7.560;2024-02-26T06:05:38;12.57;;;6.80;;
56728;SDS011;42612;52.232;7.560;2024-02-26T06:08:03;4.10;;;2.88;;
56728;SDS011;42612;52.232;7.560;2024-02-26T06:10:30;4.05;;;2.88;;
56728;SDS011;42612;52.232;7.560;2024-02-26T06:12:55;4.18;;;2.75;;
56728;SDS011;42612;52.232;7.560;2024-02-26T06:15:21;2.50;;;1.98;;
56728;SDS011;42612;52.232;7.560;2024-02-26T06:17:47;3.25;;;2.20;;
56728;SDS011;42612;52.232;7.560;2024-02-26T06:20:13;3.13;;;1.90;;
56728;SDS011;42612;52.232;7.560;2024-02-26T06:22:42;1.92;;;1.65;;
56728;SDS011;42612;52.232;7.560;2024-02-26T06:25:08;2.35;;;1.98;;
56728;SDS011;42612;52.232;7.560;2024-02-26T06:27:34;2.20;;;1.90;;
56728;SDS011;42612;52.232;7.560;2024-02-26T06:30:00;1.90;;;1.80;;
56728;SDS011;42612;52.232;7.560;2024-02-26T06:32:26;2.08;;;1.98;;
56728;SDS011;42612;52.232;7.560;2024-02-26T06:34:53;1.98;;;1.83;;
56728;SDS011;42612;52.232;7.560;2024-02-26T06:37:19;2.83;;;2.10;;
56728;SDS011;42612;52.232;7.560;2024-02-26T06:39:45;3.80;;;2.22;;
56728;SDS011;42612;52.232;7.560;2024-02-26T06:42:11;2.20;;;1.80;;
56728;SDS011;42612;52.232;7.560;2024-02-26T06:44:37;2.63;;;2.05;;
56728;SDS011;42612;52.232;7.560;2024-02-26T06:47:02;2.65;;;2.17;;
56728;SDS011;42612;52.232;7.560;2024-02-26T06:49:29;5.13;;;2.08;;
56728;SDS011;42612;52.232;7.560;2024-02-26T06:51:55;2.55;;;2.30;;
56728;SDS011;42612;52.232;7.560;2024-02-26T06:54:21;2.88;;;2.22;;
56728;SDS011;42612;52.232;7.560;2024-02-26T06:56:46;4.65;;;2.40;;
56728;SDS011;42612;52.232;7.560;2024-02-26T06:59:12;3.05;;;2.38;;
56728;SDS011;42612;52.232;7.560;2024-02-26T07:01:40;1.90;;;1.77;;
56728;SDS011;42612;52.232;7.560;2024-02-26T07:04:06;2.40;;;2.13;;
56728;SDS011;42612;52.232;7.560;2024-02-26T07:06:32;3.30;;;2.53;;
56728;SDS011;42612;52.232;7.560;2024-02-26T07:08:58;3.70;;;2.05;;
56728;SDS011;42612;52.232;7.560;2024-02-26T07:11:24;2.72;;;2.28;;
56728;SDS011;42612;52.232;7.560;2024-02-26T07:13:49;2.75;;;2.40;;
56728;SDS011;42612;52.232;7.560;2024-02-26T07:16:15;2.40;;;2.20;;
56728;SDS011;42612;52.232;7.560;2024-02-26T07:18:41;9.52;;;2.50;;
56728;SDS011;42612;52.232;7.560;2024-02-26T07:21:08;7.10;;;2.15;;
56728;SDS011;42612;52.232;7.560;2024-02-26T07:23:34;5.20;;;2.40;;
56728;SDS011;42612;52.232;7.560;2024-02-26T07:26:00;2.72;;;1.88;;
56728;SDS011;42612;52.232;7.560;2024-02-26T07:28:26;2.47;;;1.88;;
56728;SDS011;42612;52.232;7.560;2024-02-26T07:30:51;2.80;;;1.98;;
56728;SDS011;42612;52.232;7.560;2024-02-26T07:33:17;4.10;;;1.90;;
56728;SDS011;42612;52.232;7.560;2024-02-26T07:35:43;2.15;;;1.73;;
56728;SDS011;42612;52.232;7.560;2024-02-26T07:38:09;2.15;;;1.80;;
56728;SDS011;42612;52.232;7.560;2024-02-26T07:40:35;2.22;;;1.70;;
56728;SDS011;42612;52.232;7.560;2024-02-26T07:43:01;10.50;;;2.88;;
56728;SDS011;42612;52.232;7.560;2024-02-26T07:45:27;3.78;;;2.05;;
56728;SDS011;42612;52.232;7.560;2024-02-26T07:47:52;3.05;;;1.95;;
56728;SDS011;42612;52.232;7.560;2024-02-26T07:50:18;3.35;;;1.90;;
56728;SDS011;42612;52.232;7.560;2024-02-26T07:52:44;16.48;;;2.45;;
56728;SDS011;42612;52.232;7.560;2024-02-26T07:55:10;4.38;;;1.90;;
56728;SDS011;42612;52.232;7.560;2024-02-26T07:57:36;3.28;;;2.13;;
56728;SDS011;42612;52.232;7.560;2024-02-26T08:00:03;2.45;;;1.75;;
56728;SDS011;42612;52.232;7.560;2024-02-26T08:02:32;4.55;;;2.05;;
56728;SDS011;42612;52.232;7.560;2024-02-26T08:04:59;4.80;;;2.17;;
56728;SDS011;42612;52.232;7.560;2024-02-26T08:07:24;2.47;;;1.70;;
56728;SDS011;42612;52.232;7.560;2024-02-26T08:09:50;1.95;;;1.75;;
56728;SDS011;42612;52.232;7.560;2024-02-26T08:12:16;3.15;;;1.70;;
56728;SDS011;42612;52.232;7.560;2024-02-26T08:14:42;2.00;;;1.77;;
56728;SDS011;42612;52.232;7.560;2024-02-26T08:17:08;2.10;;;1.92;;
56728;SDS011;42612;52.232;7.560;2024-02-26T08:19:34;2.35;;;2.00;;
56728;SDS011;42612;52.232;7.560;2024-02-26T08:22:00;6.40;;;2.10;;
56728;SDS011;42612;52.232;7.560;2024-02-26T08:24:27;3.55;;;1.85;;
56728;SDS011;42612;52.232;7.560;2024-02-26T08:26:53;2.47;;;1.83;;
56728;SDS011;42612;52.232;7.560;2024-02-26T08:29:19;1.98;;;1.80;;
56728;SDS011;42612;52.232;7.560;2024-02-26T08:31:45;2.45;;;2.15;;
56728;SDS011;42612;52.232;7.560;2024-02-26T08:34:10;3.42;;;1.92;;
56728;SDS011;42612;52.232;7.560;2024-02-26T08:36:36;4.43;;;2.47;;
56728;SDS011;42612;52.232;7.560;2024-02-26T08:39:02;3.55;;;2.17;;
56728;SDS011;42612;52.232;7.560;2024-02-26T08:41:28;2.75;;;2.20;;
56728;SDS011;42612;52.232;7.560;2024-02-26T08:43:54;3.05;;;2.20;;
56728;SDS011;42612;52.232;7.560;2024-02-26T08:46:19;2.95;;;2.00;;
56728;SDS011;42612;52.232;7.560;2024-02-26T08:48:45;2.10;;;1.80;;
56728;SDS011;42612;52.232;7.560;2024-02-26T08:51:11;3.85;;;1.85;;
56728;SDS011;42612;52.232;7.560;2024-02-26T08:53:38;2.25;;;2.05;;
56728;SDS011;42612;52.232;7.560;2024-02-26T08:56:04;2.22;;;2.03;;
56728;SDS011;42612;52.232;7.560;2024-02-26T08:58:31;3.45;;;2.65;;
56728;SDS011;42612;52.232;7.560;2024-02-26T09:00:56;2.83;;;2.33;;
56728;SDS011;42612;52.232;7.560;2024-02-26T09:03:22;3.22;;;2.70;;
56728;SDS011;42612;52.232;7.560;2024-02-26T09:05:48;3.17;;;2.25;;
56728;SDS011;42612;52.232;7.560;2024-02-26T09:08:14;2.70;;;2.40;;
56728;SDS011;42612;52.232;7.560;2024-02-26T09:10:40;5.13;;;2.58;;
56728;SDS011;42612;52.232;7.560;2024-02-26T09:13:06;3.75;;;2.58;;
56728;SDS011;42612;52.232;7.560;2024-02-26T09:15:32;3.45;;;2.30;;
56728;SDS011;42612;52.232;7.560;2024-02-26T09:17:58;3.55;;;2.80;;
56728;SDS011;42612;52.232;7.560;2024-02-26T09:20:24;4.43;;;2.53;;
56728;SDS011;42612;52.232;7.560;2024-02-26T09:22:49;2.90;;;2.17;;
56728;SDS011;42612;52.232;7.560;2024-02-26T09:25:16;2.95;;;2.55;;
56728;SDS011;42612;52.232;7.560;2024-02-26T09:27:43;3.20;;;2.80;;
56728;SDS011;42612;52.232;7.560;2024-02-26T09:30:10;4.38;;;3.40;;
56728;SDS011;42612;52.232;7.560;2024-02-26T09:35:03;2.92;;;2.60;;
56728;SDS011;42612;52.232;7.560;2024-02-26T09:37:30;4.82;;;2.75;;
56728;SDS011;42612;52.232;7.560;2024-02-26T09:39:56;3.58;;;2.80;;
56728;SDS011;42612;52.232;7.560;2024-02-26T09:42:21;4.70;;;2.80;;
56728;SDS011;42612;52.232;7.560;2024-02-26T09:44:51;3.97;;;2.80;;
56728;SDS011;42612;52.232;7.560;2024-02-26T09:47:23;4.90;;;3.20;;
56728;SDS011;42612;52.232;7.560;2024-02-26T09:52:17;3.90;;;2.60;;
56728;SDS011;42612;52.232;7.560;2024-02-26T09:54:48;4.35;;;2.92;;
56728;SDS011;42612;52.232;7.560;2024-02-26T09:57:14;3.42;;;2.55;;
56728;SDS011;42612;52.232;7.560;2024-02-26T09:59:42;3.72;;;2.63;;
56728;SDS011;42612;52.232;7.560;2024-02-26T10:02:11;3.10;;;2.53;;
56728;SDS011;42612;52.232;7.560;2024-02-26T10:04:41;2.95;;;2.42;;
56728;SDS011;42612;52.232;7.560;2024-02-26T10:07:11;2.67;;;2.30;;
56728;SDS011;42612;52.232;7.560;2024-02-26T10:09:38;3.10;;;2.58;;
56728;SDS011;42612;52.232;7.560;2024-02-26T10:12:04;3.67;;;2.35;;
56728;SDS011;42612;52.232;7.560;2024-02-26T10:14:32;3.38;;;2.55;;
56728;SDS011;42612;52.232;7.560;2024-02-26T10:16:58;3.60;;;2.50;;
56728;SDS011;42612;52.232;7.560;2024-02-26T10:19:44;2.70;;;2.45;;
56728;SDS011;42612;52.232;7.560;2024-02-26T10:22:10;3.28;;;2.38;;
56728;SDS011;42612;52.232;7.560;2024-02-26T10:24:36;4.20;;;2.70;;
56728;SDS011;42612;52.232;7.560;2024-02-26T10:27:02;3.00;;;2.30;;
56728;SDS011;42612;52.232;7.560;2024-02-26T10:29:28;3.20;;;2.40;;
56728;SDS011;42612;52.232;7.560;2024-02-26T10:31:54;3.35;;;2.50;;
56728;SDS011;42612;52.232;7.560;2024-02-26T10:34:20;2.95;;;2.33;;
56728;SDS011;42612;52.232;7.560;2024-02-26T10:36:46;2.70;;;2.17;;
56728;SDS011;42612;52.232;7.560;2024-02-26T10:39:12;2.70;;;2.20;;
56728;SDS011;42612;52.232;7.560;2024-02-26T10:41:39;2.25;;;1.95;;
56728;SDS011;42612;52.232;7.560;2024-02-26T10:44:10;2.97;;;2.08;;
56728;SDS011;42612;52.232;7.560;2024-02-26T10:46:37;2.20;;;2.00;;
56728;SDS011;42612;52.232;7.560;2024-02-26T10:49:05;2.30;;;1.90;;
56728;SDS011;42612;52.232;7.560;2024-02-26T10:51:38;2.80;;;1.90;;
56728;SDS011;42612;52.232;7.560;2024-02-26T10:54:07;2.20;;;2.00;;
56728;SDS011;42612;52.232;7.560;2024-02-26T10:56:35;2.45;;;2.17;;
56728;SDS011;42612;52.232;7.560;2024-02-26T10:59:04;2.60;;;2.03;;
56728;SDS011;42612;52.232;7.560;2024-02-26T11:01:35;2.65;;;2.00;;
56728;SDS011;42612;52.232;7.560;2024-02-26T11:04:03;2.00;;;1.65;;
56728;SDS011;42612;52.232;7.560;2024-02-26T11:06:30;2.97;;;2.10;;
56728;SDS011;42612;52.232;7.560;2024-02-26T11:08:59;2.92;;;2.47;;
56728;SDS011;42612;52.232;7.560;2024-02-26T11:11:27;3.22;;;2.47;;
56728;SDS011;42612;52.232;7.560;2024-02-26T11:13:54;2.58;;;2.00;;
56728;SDS011;42612;52.232;7.560;2024-02-26T11:16:23;2.70;;;2.25;;
56728;SDS011;42612;52.232;7.560;2024-02-26T11:18:49;3.15;;;2.20;;
56728;SDS011;42612;52.232;7.560;2024-02-26T11:21:21;6.38;;;2.50;;
56728;SDS011;42612;52.232;7.560;2024-02-26T11:24:03;3.45;;;1.80;;
56728;SDS011;42612;52.232;7.560;2024-02-26T11:26:41;5.57;;;2.35;;
56728;SDS011;42612;52.232;7.560;2024-02-26T11:29:16;4.20;;;2.40;;
56728;SDS011;42612;52.232;7.560;2024-02-26T11:31:46;2.85;;;2.45;;
56728;SDS011;42612;52.232;7.560;2024-02-26T11:34:13;3.08;;;2.58;;
56728;SDS011;42612;52.232;7.560;2024-02-26T11:36:39;5.30;;;2.65;;
56728;SDS011;42612;52.232;7.560;2024-02-26T11:39:04;3.10;;;2.45;;
56728;SDS011;42612;52.232;7.560;2024-02-26T11:41:31;4.10;;;2.58;;
56728;SDS011;42612;52.232;7.560;2024-02-26T11:51:56;5.30;;;2.40;;
56728;SDS011;42612;52.232;7.560;2024-02-26T11:57:39;9.90;;;2.60;;
56728;SDS011;42612;52.232;7.560;2024-02-26T12:02:40;3.95;;;2.85;;
56728;SDS011;42612;52.232;7.560;2024-02-26T12:07:54;3.42;;;2.97;;
56728;SDS011;42612;52.232;7.560;2024-02-26T12:10:25;6.30;;;3.33;;
56728;SDS011;42612;52.232;7.560;2024-02-26T12:12:54;3.97;;;2.72;;
56728;SDS011;42612;52.232;7.560;2024-02-26T12:15:24;5.35;;;3.35;;
56728;SDS011;42612;52.232;7.560;2024-02-26T12:17:55;4.97;;;3.47;;
56728;SDS011;42612;52.232;7.560;2024-02-26T12:20:22;4.10;;;3.03;;
56728;SDS011;42612;52.232;7.560;2024-02-26T12:22:49;5.80;;;3.58;;
56728;SDS011;42612;52.232;7.560;2024-02-26T12:25:17;4.72;;;3.55;;
56728;SDS011;42612;52.232;7.560;2024-02-26T12:27:50;5.70;;;3.30;;
56728;SDS011;42612;52.232;7.560;2024-02-26T12:30:16;7.03;;;3.90;;
56728;SDS011;42612;52.232;7.560;2024-02-26T12:32:43;5.82;;;3.58;;
56728;SDS011;42612;52.232;7.560;2024-02-26T12:35:08;5.20;;;3.60;;
56728;SDS011;42612;52.232;7.560;2024-02-26T12:37:34;5.97;;;3.80;;
56728;SDS011;42612;52.232;7.560;2024-02-26T12:40:03;7.18;;;4.35;;
56728;SDS011;42612;52.232;7.560;2024-02-26T12:42:32;5.93;;;3.60;;
56728;SDS011;42612;52.232;7.560;2024-02-26T12:45:04;4.60;;;3.38;;
56728;SDS011;42612;52.232;7.560;2024-02-26T12:47:38;5.13;;;3.42;;
56728;SDS011;42612;52.232;7.560;2024-02-26T12:50:05;7.18;;;4.32;;
56728;SDS011;42612;52.232;7.560;2024-02-26T12:52:32;5.82;;;3.83;;
56728;SDS011;42612;52.232;7.560;2024-02-26T12:57:27;8.32;;;3.88;;
56728;SDS011;42612;52.232;7.560;2024-02-26T12:59:58;5.25;;;3.55;;
56728;SDS011;42612;52.232;7.560;2024-02-26T13:02:25;5.20;;;3.75;;
56728;SDS011;42612;52.232;7.560;2024-02-26T13:04:52;6.68;;;4.50;;
56728;SDS011;42612;52.232;7.560;2024-02-26T13:07:20;7.47;;;4.35;;
56728;SDS011;42612;52.232;7.560;2024-02-26T13:09:46;6.97;;;4.83;;
56728;SDS011;42612;52.232;7.560;2024-02-26T13:12:11;8.32;;;4.32;;
56728;SDS011;42612;52.232;7.560;2024-02-26T13:14:39;14.43;;;4.63;;
56728;SDS011;42612;52.232;7.560;2024-02-26T13:17:04;6.13;;;4.05;;
56728;SDS011;42612;52.232;7.560;2024-02-26T13:19:30;7.30;;;4.53;;
56728;SDS011;42612;52.232;7.560;2024-02-26T13:21:56;5.60;;;4.10;;
56728;SDS011;42612;52.232;7.560;2024-02-26T13:24:31;8.27;;;4.43;;
56728;SDS011;42612;52.232;7.560;2024-02-26T13:27:00;6.45;;;4.47;;
56728;SDS011;42612;52.232;7.560;2024-02-26T13:31:57;7.22;;;3.75;;
56728;SDS011;42612;52.232;7.560;2024-02-26T13:34:26;6.03;;;4.07;;
56728;SDS011;42612;52.232;7.560;2024-02-26T13:36:56;6.10;;;3.88;;
56728;SDS011;42612;52.232;7.560;2024-02-26T13:39:40;4.60;;;3.70;;
56728;SDS011;42612;52.232;7.560;2024-02-26T13:42:07;6.50;;;4.10;;
56728;SDS011;42612;52.232;7.560;2024-02-26T13:44:33;7.43;;;4.28;;
56728;SDS011;42612;52.232;7.560;2024-02-26T13:47:04;5.85;;;4.22;;
56728;SDS011;42612;52.232;7.560;2024-02-26T13:49:30;8.02;;;4.63;;
56728;SDS011;42612;52.232;7.560;2024-02-26T13:51:55;8.23;;;4.35;;
56728;SDS011;42612;52.232;7.560;2024-02-26T13:54:21;7.25;;;4.82;;
56728;SDS011;42612;52.232;7.560;2024-02-26T13:56:47;6.65;;;4.35;;
56728;SDS011;42612;52.232;7.560;2024-02-26T13:59:12;6.22;;;4.28;;
56728;SDS011;42612;52.232;7.560;2024-02-26T14:01:38;6.50;;;4.40;;
56728;SDS011;42612;52.232;7.560;2024-02-26T14:04:04;9.32;;;5.07;;
56728;SDS011;42612;52.232;7.560;2024-02-26T14:06:29;7.20;;;4.57;;
56728;SDS011;42612;52.232;7.560;2024-02-26T14:08:55;6.88;;;4.13;;
56728;SDS011;42612;52.232;7.560;2024-02-26T14:11:21;7.45;;;3.90;;
56728;SDS011;42612;52.232;7.560;2024-02-26T14:13:47;6.03;;;3.80;;
56728;SDS011;42612;52.232;7.560;2024-02-26T14:16:12;7.95;;;4.40;;
56728;SDS011;42612;52.232;7.560;2024-02-26T14:18:38;7.70;;;4.82;;
56728;SDS011;42612;52.232;7.560;2024-02-26T14:21:04;10.52;;;4.60;;
56728;SDS011;42612;52.232;7.560;2024-02-26T14:23:30;5.90;;;4.07;;
56728;SDS011;42612;52.232;7.560;2024-02-26T14:25:55;7.00;;;4.45;;
56728;SDS011;42612;52.232;7.560;2024-02-26T14:28:21;7.20;;;3.90;;
56728;SDS011;42612;52.232;7.560;2024-02-26T14:30:49;6.65;;;3.60;;
56728;SDS011;42612;52.232;7.560;2024-02-26T14:33:15;6.78;;;4.03;;
56728;SDS011;42612;52.232;7.560;2024-02-26T14:35:40;5.45;;;3.90;;
56728;SDS011;42612;52.232;7.560;2024-02-26T14:38:06;5.78;;;3.97;;
56728;SDS011;42612;52.232;7.560;2024-02-26T14:40:32;4.63;;;3.55;;
56728;SDS011;42612;52.232;7.560;2024-02-26T14:42:58;6.45;;;4.05;;
56728;SDS011;42612;52.232;7.560;2024-02-26T14:45:25;7.85;;;3.63;;
56728;SDS011;42612;52.232;7.560;2024-02-26T14:47:51;5.90;;;3.70;;
56728;SDS011;42612;52.232;7.560;2024-02-26T14:50:17;8.60;;;4.28;;
56728;SDS011;42612;52.232;7.560;2024-02-26T14:52:43;7.45;;;3.83;;
56728;SDS011;42612;52.232;7.560;2024-02-26T14:55:08;8.98;;;4.00;;
56728;SDS011;42612;52.232;7.560;2024-02-26T14:57:34;9.75;;;4.13;;
56728;SDS011;42612;52.232;7.560;2024-02-26T15:00:00;6.47;;;3.53;;
56728;SDS011;42612;52.232;7.560;2024-02-26T15:02:26;6.40;;;3.83;;
56728;SDS011;42612;52.232;7.560;2024-02-26T15:04:51;6.20;;;3.45;;
56728;SDS011;42612;52.232;7.560;2024-02-26T15:07:17;5.13;;;3.53;;
56728;SDS011;42612;52.232;7.560;2024-02-26T15:12:11;7.93;;;4.22;;
56728;SDS011;42612;52.232;7.560;2024-02-26T15:14:36;5.97;;;3.42;;
56728;SDS011;42612;52.232;7.560;2024-02-26T15:17:02;6.50;;;3.95;;